Manea, United Kingdom
Current Conditions -  °F | °C
As of 12:58 AM on Tuesday 27 Jan 2015 (Local Time) from EGUN Reporting Station
Clear Clear  
Wind Chill: 26°   Ceiling: Unl
Heat Index: 33°   Visibility: 6mi
Dew Point: 31°   Wind: 9mph
Humidity: 93%   Direction: 270°W
Pressure: 30.31"   Gusts: NA
Location:  52.48°N, 0.18°E
Report Text: EGUN 270058Z AUTO 27008KT 9999 CLR 01/00 A3031 RMK AO2 SLP268 T00071003
Loading
Personal Weather Stations






























Interactive Weather Map New forecast layout! Learn more

10-Day Weather Forecast

Advertisements
Track Severe Weather on mobile